Startpagina
METAR-TAF:

METAR-TAF

Vliegvelden :

Mauritius, Plaisance, Mauritius

breedte: 20-26S, lengte: 057-40E, hoogte: 55 m

Actueel weer

Dit bericht is 30 minuten geleden gemaakt, om 04:00 UTC
Wind 10 kt uit het oosten
Temperatuur 28°C
Vochtigheid 74%
Druk 1017 hPa
Zicht 10 km of meer
Verspreide wolken op 1600 ft

METAR: FIMP 140400Z 09010KT 9999 SCT016 28/23 Q1017

Tijdstip: 08:30 (04:30 UTC)

Verwachting

Dit bericht is 4 uur en het 55 minuten geleden gemaakt, om 23:35 UTC
Verwachting geldig van 14 om 00 UTC tot 15 om 06 UTC
Wind 5 kt uit het oostnoordoosten
Zicht 10 km of meer
Verspreide wolken op 1600 ft
Wijzigt naar
van 14 om 04 UTC tot 14 om 06 UTC
Wind 10 kt uit het oosten met uitschieters tot 20 kt

TAF: FIMP 132335Z 1400/1506 07005KT 9999 SCT016 BECMG 1404/1406 08010G20KT

Waarnemingen en weersverwachtingen van meer dan 4000 vliegvelden (METAR en TAF).

De beschikbare stations zijn de gele en rode punten op de kaart.

Ga met uw muis naar het station om de naam te zien.

Klik dan om waarnemingen en weersverwachtingen te zien.

kaart wijzigen: klik op de groene knoppen met een zwart kruis om in te zoomen, op de groene knop met een streepje om uit te zoomen of op de groene pijlen voor aangrenzende kaarten.


METAR-TAF: